Potosi, Texas
Current Conditions -  °F | °C
As of 1:52 AM on Friday 19 Dec 2014 (Local Time) from KABI Reporting Station
Light Rain Light Rain  
Wind Chill: 38°   Ceiling: 600
Heat Index: 43°   Visibility: 7mi
Dew Point: 40°   Wind: 9mph
Humidity: 89%   Direction: 360°N
Pressure: 30.12"   Gusts: NA
Location:  32.4816°N, 99.6841°W
Report Text: KABI 190752Z 36008KT 7SM -RA OVC006 06/04 A3012 RMK AO2 RAB48 SLP192 P0000 T00610044
Loading
Personal Weather Stations






























Interactive Weather Map New forecast layout! Learn more

10-Day Weather Forecast

Advertisements
Track Severe Weather on mobile